sensor_id;sensor_type;location;lat;lon;timestamp;pressure;altitude;pressure_sealevel;temperature;humidity
74893;BME280;63446;56.272;43.922;2023-12-20T00:00:08;98745.38;;;4.88;75.49
74893;BME280;63446;56.272;43.922;2023-12-20T00:02:34;98739.84;;;4.90;75.40
74893;BME280;63446;56.272;43.922;2023-12-20T00:05:00;98739.56;;;4.92;75.47
74893;BME280;63446;56.272;43.922;2023-12-20T00:07:28;98744.81;;;4.92;75.44
74893;BME280;63446;56.272;43.922;2023-12-20T00:09:54;98740.09;;;4.94;75.45
74893;BME280;63446;56.272;43.922;2023-12-20T00:12:20;98748.44;;;4.96;75.33
74893;BME280;63446;56.272;43.922;2023-12-20T00:14:46;98747.66;;;4.95;75.47
74893;BME280;63446;56.272;43.922;2023-12-20T00:17:11;98750.81;;;4.97;75.40
74893;BME280;63446;56.272;43.922;2023-12-20T00:19:37;98752.38;;;4.98;75.44
74893;BME280;63446;56.272;43.922;2023-12-20T00:22:03;98754.72;;;5.00;75.23
74893;BME280;63446;56.272;43.922;2023-12-20T00:24:29;98764.16;;;5.01;75.35
74893;BME280;63446;56.272;43.922;2023-12-20T00:26:55;98756.28;;;5.01;75.37
74893;BME280;63446;56.272;43.922;2023-12-20T00:29:21;98757.34;;;5.00;75.31
74893;BME280;63446;56.272;43.922;2023-12-20T00:31:47;98768.84;;;5.04;nan
74893;BME280;63446;56.272;43.922;2023-12-20T00:34:12;98764.66;;;5.03;75.23
74893;BME280;63446;56.272;43.922;2023-12-20T00:36:38;98774.09;;;5.04;75.33
74893;BME280;63446;56.272;43.922;2023-12-20T00:39:05;98763.34;;;5.05;75.34
74893;BME280;63446;56.272;43.922;2023-12-20T00:41:32;98775.34;;;5.06;75.50
74893;BME280;63446;56.272;43.922;2023-12-20T00:43:58;98773.53;;;5.07;75.26
74893;BME280;63446;56.272;43.922;2023-12-20T00:46:23;98778.75;;;5.07;75.31
74893;BME280;63446;56.272;43.922;2023-12-20T00:48:49;98777.97;;;5.06;75.23
74893;BME280;63446;56.272;43.922;2023-12-20T00:51:15;98781.38;;;5.07;75.36
74893;BME280;63446;56.272;43.922;2023-12-20T00:53:42;98784.81;;;5.07;75.37
74893;BME280;63446;56.272;43.922;2023-12-20T00:56:08;98776.66;;;5.09;nan
74893;BME280;63446;56.272;43.922;2023-12-20T00:58:34;98791.59;;;5.08;75.42
74893;BME280;63446;56.272;43.922;2023-12-20T01:01:00;98776.66;;;5.09;75.40
74893;BME280;63446;56.272;43.922;2023-12-20T01:03:26;98784.53;;;5.09;75.28
74893;BME280;63446;56.272;43.922;2023-12-20T01:05:52;98789.47;;;5.10;75.19
74893;BME280;63446;56.272;43.922;2023-12-20T01:08:19;98795.50;;;5.11;75.25
74893;BME280;63446;56.272;43.922;2023-12-20T01:10:45;98791.31;;;5.10;75.35
74893;BME280;63446;56.272;43.922;2023-12-20T01:13:12;98791.06;;;5.11;75.36
74893;BME280;63446;56.272;43.922;2023-12-20T01:15:38;98785.00;;;5.11;75.35
74893;BME280;63446;56.272;43.922;2023-12-20T01:18:05;98783.22;;;5.11;75.45
74893;BME280;63446;56.272;43.922;2023-12-20T01:20:31;98794.97;;;5.14;75.41
74893;BME280;63446;56.272;43.922;2023-12-20T01:22:57;98787.88;;;5.14;75.37
74893;BME280;63446;56.272;43.922;2023-12-20T01:25:23;98802.56;;;5.16;75.44
74893;BME280;63446;56.272;43.922;2023-12-20T01:27:49;98803.06;;;5.18;75.36
74893;BME280;63446;56.272;43.922;2023-12-20T01:30:15;98799.94;;;5.16;75.35
74893;BME280;63446;56.272;43.922;2023-12-20T01:32:41;98800.44;;;5.18;75.26
74893;BME280;63446;56.272;43.922;2023-12-20T01:35:07;98802.81;;;5.19;75.33
74893;BME280;63446;56.272;43.922;2023-12-20T01:37:33;98800.44;;;5.18;75.24
74893;BME280;63446;56.272;43.922;2023-12-20T01:39:59;98798.59;;;5.18;75.28
74893;BME280;63446;56.272;43.922;2023-12-20T01:42:25;98803.59;;;5.20;nan
74893;BME280;63446;56.272;43.922;2023-12-20T01:44:51;98796.50;;;5.20;75.18
74893;BME280;63446;56.272;43.922;2023-12-20T01:47:16;98805.91;;;5.21;75.09
74893;BME280;63446;56.272;43.922;2023-12-20T01:49:43;98808.81;;;5.20;75.08
74893;BME280;63446;56.272;43.922;2023-12-20T01:52:09;98802.00;;;5.19;74.94
74893;BME280;63446;56.272;43.922;2023-12-20T01:54:35;98807.50;;;5.17;74.98
74893;BME280;63446;56.272;43.922;2023-12-20T01:57:01;98806.75;;;5.17;75.02
74893;BME280;63446;56.272;43.922;2023-12-20T01:59:29;98808.56;;;5.16;75.04
74893;BME280;63446;56.272;43.922;2023-12-20T02:01:55;98815.38;;;5.17;75.10
74893;BME280;63446;56.272;43.922;2023-12-20T02:04:24;98812.75;;;5.17;74.88
74893;BME280;63446;56.272;43.922;2023-12-20T02:06:52;98819.81;;;5.17;74.95
74893;BME280;63446;56.272;43.922;2023-12-20T02:09:20;98817.72;;;5.19;74.82
74893;BME280;63446;56.272;43.922;2023-12-20T02:11:46;98822.94;;;5.19;74.88
74893;BME280;63446;56.272;43.922;2023-12-20T02:14:12;98816.69;;;5.20;74.80
74893;BME280;63446;56.272;43.922;2023-12-20T02:16:38;98820.06;;;5.20;74.77
74893;BME280;63446;56.272;43.922;2023-12-20T02:19:10;98817.47;;;5.20;74.48
74893;BME280;63446;56.272;43.922;2023-12-20T02:21:38;98818.78;;;5.18;74.76
74893;BME280;63446;56.272;43.922;2023-12-20T02:24:04;98819.53;;;5.18;74.73
74893;BME280;63446;56.272;43.922;2023-12-20T02:26:32;98824.00;;;5.18;74.75
74893;BME280;63446;56.272;43.922;2023-12-20T02:28:59;98825.31;;;5.20;74.78
74893;BME280;63446;56.272;43.922;2023-12-20T02:31:25;98827.66;;;5.22;74.64
74893;BME280;63446;56.272;43.922;2023-12-20T02:33:52;98824.78;;;5.23;74.64
74893;BME280;63446;56.272;43.922;2023-12-20T02:36:17;98822.94;;;5.24;74.75
74893;BME280;63446;56.272;43.922;2023-12-20T02:38:43;98806.44;;;5.23;74.69
74893;BME280;63446;56.272;43.922;2023-12-20T02:41:10;98809.56;;;5.25;74.68
74893;BME280;63446;56.272;43.922;2023-12-20T02:43:35;98815.31;;;5.27;74.65
74893;BME280;63446;56.272;43.922;2023-12-20T02:46:01;98813.47;;;5.28;74.70
74893;BME280;63446;56.272;43.922;2023-12-20T02:48:29;98820.28;;;5.29;74.63
74893;BME280;63446;56.272;43.922;2023-12-20T02:50:54;98817.94;;;5.27;74.56
74893;BME280;63446;56.272;43.922;2023-12-20T02:53:20;98814.78;;;5.25;74.60
74893;BME280;63446;56.272;43.922;2023-12-20T02:55:47;98815.56;;;5.26;74.50
74893;BME280;63446;56.272;43.922;2023-12-20T02:58:12;98814.03;;;5.25;74.55
74893;BME280;63446;56.272;43.922;2023-12-20T03:00:38;98824.22;;;5.26;74.51
74893;BME280;63446;56.272;43.922;2023-12-20T03:03:04;98826.34;;;5.24;74.64
74893;BME280;63446;56.272;43.922;2023-12-20T03:05:30;98822.41;;;5.27;74.69
74893;BME280;63446;56.272;43.922;2023-12-20T03:07:56;98823.19;;;5.27;74.47
74893;BME280;63446;56.272;43.922;2023-12-20T03:10:23;98819.50;;;5.28;74.54
74893;BME280;63446;56.272;43.922;2023-12-20T03:12:48;98826.31;;;5.29;74.55
74893;BME280;63446;56.272;43.922;2023-12-20T03:15:15;98822.91;;;5.29;74.42
74893;BME280;63446;56.272;43.922;2023-12-20T03:17:41;98831.28;;;5.31;74.54
74893;BME280;63446;56.272;43.922;2023-12-20T03:20:08;98829.16;;;5.33;74.57
74893;BME280;63446;56.272;43.922;2023-12-20T03:22:34;98828.91;;;5.34;74.39
74893;BME280;63446;56.272;43.922;2023-12-20T03:25:00;98824.97;;;5.32;74.11
74893;BME280;63446;56.272;43.922;2023-12-20T03:27:29;98825.22;;;5.30;74.23
74893;BME280;63446;56.272;43.922;2023-12-20T03:29:55;98831.03;;;5.27;74.08
74893;BME280;63446;56.272;43.922;2023-12-20T03:32:21;98821.38;;;5.23;74.07
74893;BME280;63446;56.272;43.922;2023-12-20T03:34:47;98831.63;;;5.19;74.16
74893;BME280;63446;56.272;43.922;2023-12-20T03:37:14;98829.53;;;5.16;73.99
74893;BME280;63446;56.272;43.922;2023-12-20T03:39:39;98821.16;;;5.14;74.28
74893;BME280;63446;56.272;43.922;2023-12-20T03:42:05;98823.75;;;5.14;74.24
74893;BME280;63446;56.272;43.922;2023-12-20T03:44:31;98836.84;;;5.14;74.18
74893;BME280;63446;56.272;43.922;2023-12-20T03:46:57;98824.03;;;5.12;74.36
74893;BME280;63446;56.272;43.922;2023-12-20T03:49:23;98828.50;;;5.12;74.21
74893;BME280;63446;56.272;43.922;2023-12-20T03:51:49;98821.47;;;5.07;74.08
74893;BME280;63446;56.272;43.922;2023-12-20T03:54:14;98815.69;;;5.05;74.14
74893;BME280;63446;56.272;43.922;2023-12-20T03:56:40;98827.75;;;5.01;74.11
74893;BME280;63446;56.272;43.922;2023-12-20T03:59:06;98829.09;;;4.94;73.97
74893;BME280;63446;56.272;43.922;2023-12-20T04:01:32;98824.16;;;4.87;74.09
74893;BME280;63446;56.272;43.922;2023-12-20T04:03:58;98821.28;;;4.83;74.26
74893;BME280;63446;56.272;43.922;2023-12-20T04:06:24;98826.03;;;4.81;74.12
74893;BME280;63446;56.272;43.922;2023-12-20T04:08:49;98829.16;;;4.78;74.35
74893;BME280;63446;56.272;43.922;2023-12-20T04:11:15;98830.22;;;4.77;74.32
74893;BME280;63446;56.272;43.922;2023-12-20T04:13:41;98826.53;;;4.78;74.44
74893;BME280;63446;56.272;43.922;2023-12-20T04:16:07;98829.66;;;4.80;74.32
74893;BME280;63446;56.272;43.922;2023-12-20T04:18:33;98831.75;;;4.83;74.45
74893;BME280;63446;56.272;43.922;2023-12-20T04:20:59;98823.13;;;4.83;74.39
74893;BME280;63446;56.272;43.922;2023-12-20T04:23:25;98830.44;;;4.86;74.22
74893;BME280;63446;56.272;43.922;2023-12-20T04:25:51;98827.53;;;4.87;74.24
74893;BME280;63446;56.272;43.922;2023-12-20T04:28:17;98828.06;;;4.89;74.48
74893;BME280;63446;56.272;43.922;2023-12-20T04:30:43;98828.31;;;4.93;74.23
74893;BME280;63446;56.272;43.922;2023-12-20T04:33:09;98826.47;;;4.94;74.27
74893;BME280;63446;56.272;43.922;2023-12-20T04:35:35;98831.72;;;4.94;73.92
74893;BME280;63446;56.272;43.922;2023-12-20T04:38:01;98829.63;;;4.90;73.93
74893;BME280;63446;56.272;43.922;2023-12-20T04:40:26;98827.03;;;4.90;74.25
74893;BME280;63446;56.272;43.922;2023-12-20T04:42:52;98834.34;;;4.94;74.23
74893;BME280;63446;56.272;43.922;2023-12-20T04:45:18;98837.97;;;4.98;74.25
74893;BME280;63446;56.272;43.922;2023-12-20T04:47:45;98830.66;;;5.00;74.14
74893;BME280;63446;56.272;43.922;2023-12-20T04:50:12;98842.94;;;5.04;74.11
74893;BME280;63446;56.272;43.922;2023-12-20T04:52:39;98834.31;;;5.04;73.92
74893;BME280;63446;56.272;43.922;2023-12-20T04:55:05;98847.38;;;5.09;73.94
74893;BME280;63446;56.272;43.922;2023-12-20T04:57:30;98840.81;;;5.11;73.82
74893;BME280;63446;56.272;43.922;2023-12-20T04:59:56;98845.03;;;5.07;73.62
74893;BME280;63446;56.272;43.922;2023-12-20T05:02:22;98855.50;;;5.02;73.62
74893;BME280;63446;56.272;43.922;2023-12-20T05:04:48;98869.66;;;5.01;73.74
74893;BME280;63446;56.272;43.922;2023-12-20T05:07:14;98869.66;;;5.01;73.99
74893;BME280;63446;56.272;43.922;2023-12-20T05:09:40;98863.34;;;5.02;73.77
74893;BME280;63446;56.272;43.922;2023-12-20T05:12:06;98862.03;;;5.05;74.02
74893;BME280;63446;56.272;43.922;2023-12-20T05:14:32;98862.53;;;5.07;73.90
74893;BME280;63446;56.272;43.922;2023-12-20T05:16:58;98868.31;;;5.09;73.82
74893;BME280;63446;56.272;43.922;2023-12-20T05:19:24;98867.50;;;5.13;73.93
74893;BME280;63446;56.272;43.922;2023-12-20T05:21:51;98865.91;;;5.18;74.01
74893;BME280;63446;56.272;43.922;2023-12-20T05:24:18;98861.97;;;5.20;73.69
74893;BME280;63446;56.272;43.922;2023-12-20T05:26:43;98861.19;;;5.20;73.77
74893;BME280;63446;56.272;43.922;2023-12-20T05:29:09;98865.38;;;5.21;73.80
74893;BME280;63446;56.272;43.922;2023-12-20T05:31:35;98851.50;;;5.20;73.76
74893;BME280;63446;56.272;43.922;2023-12-20T05:34:00;98855.97;;;5.20;73.84
74893;BME280;63446;56.272;43.922;2023-12-20T05:36:26;98858.84;;;5.18;73.79
74893;BME280;63446;56.272;43.922;2023-12-20T05:38:53;98856.50;;;5.17;73.60
74893;BME280;63446;56.272;43.922;2023-12-20T05:41:20;98863.81;;;5.14;73.75
74893;BME280;63446;56.272;43.922;2023-12-20T05:43:47;98869.88;;;5.15;73.78
74893;BME280;63446;56.272;43.922;2023-12-20T05:46:13;98869.88;;;5.15;73.88
74893;BME280;63446;56.272;43.922;2023-12-20T05:48:38;98868.81;;;5.16;73.79
74893;BME280;63446;56.272;43.922;2023-12-20T05:51:07;98869.06;;;5.14;73.68
74893;BME280;63446;56.272;43.922;2023-12-20T05:53:37;98877.94;;;5.19;73.71
74893;BME280;63446;56.272;43.922;2023-12-20T05:56:04;98876.63;;;5.21;73.74
74893;BME280;63446;56.272;43.922;2023-12-20T05:58:31;98875.31;;;5.24;73.92
74893;BME280;63446;56.272;43.922;2023-12-20T06:00:57;98868.75;;;5.26;73.77
74893;BME280;63446;56.272;43.922;2023-12-20T06:03:23;98861.94;;;5.25;73.57
74893;BME280;63446;56.272;43.922;2023-12-20T06:05:49;98873.97;;;5.31;73.47
74893;BME280;63446;56.272;43.922;2023-12-20T06:08:15;98882.09;;;5.35;73.57
74893;BME280;63446;56.272;43.922;2023-12-20T06:10:40;98870.28;;;5.32;73.53
74893;BME280;63446;56.272;43.922;2023-12-20T06:13:06;98881.25;;;5.39;73.47
74893;BME280;63446;56.272;43.922;2023-12-20T06:15:34;98887.81;;;5.42;73.55
74893;BME280;63446;56.272;43.922;2023-12-20T06:18:01;98901.66;;;5.48;73.54
74893;BME280;63446;56.272;43.922;2023-12-20T06:20:27;98887.72;;;5.52;73.45
74893;BME280;63446;56.272;43.922;2023-12-20T06:22:53;98891.66;;;5.55;73.33
74893;BME280;63446;56.272;43.922;2023-12-20T06:25:19;98889.28;;;5.58;73.43
74893;BME280;63446;56.272;43.922;2023-12-20T06:27:46;98896.88;;;5.60;73.01
74893;BME280;63446;56.272;43.922;2023-12-20T06:30:15;98903.41;;;5.62;73.07
74893;BME280;63446;56.272;43.922;2023-12-20T06:32:41;98902.63;;;5.62;72.92
74893;BME280;63446;56.272;43.922;2023-12-20T06:35:09;98915.19;;;5.65;72.86
74893;BME280;63446;56.272;43.922;2023-12-20T06:37:35;98906.28;;;5.66;72.76
74893;BME280;63446;56.272;43.922;2023-12-20T06:40:01;98908.63;;;5.68;72.92
74893;BME280;63446;56.272;43.922;2023-12-20T06:42:30;98904.94;;;5.69;72.84
74893;BME280;63446;56.272;43.922;2023-12-20T06:44:55;98896.03;;;5.70;72.49
74893;BME280;63446;56.272;43.922;2023-12-20T06:47:22;98903.91;;;5.70;72.55
74893;BME280;63446;56.272;43.922;2023-12-20T06:49:48;98909.91;;;5.70;72.55
74893;BME280;63446;56.272;43.922;2023-12-20T06:52:14;98910.97;;;5.69;72.38
74893;BME280;63446;56.272;43.922;2023-12-20T06:54:40;98923.53;;;5.72;72.56
74893;BME280;63446;56.272;43.922;2023-12-20T06:57:06;98907.53;;;5.74;72.58
74893;BME280;63446;56.272;43.922;2023-12-20T06:59:31;98908.31;;;5.74;72.40
74893;BME280;63446;56.272;43.922;2023-12-20T07:01:59;98915.13;;;5.75;72.28
74893;BME280;63446;56.272;43.922;2023-12-20T07:04:25;98913.03;;;5.77;72.27
74893;BME280;63446;56.272;43.922;2023-12-20T07:06:50;98913.28;;;5.76;72.32
74893;BME280;63446;56.272;43.922;2023-12-20T07:09:23;98919.03;;;5.78;72.23
74893;BME280;63446;56.272;43.922;2023-12-20T07:11:49;98921.38;;;5.79;72.14
74893;BME280;63446;56.272;43.922;2023-12-20T07:14:14;98908.81;;;5.81;72.09
74893;BME280;63446;56.272;43.922;2023-12-20T07:16:40;98916.66;;;5.81;71.90
74893;BME280;63446;56.272;43.922;2023-12-20T07:19:06;98914.03;;;5.81;72.07
74893;BME280;63446;56.272;43.922;2023-12-20T07:21:32;98917.72;;;5.80;71.84
74893;BME280;63446;56.272;43.922;2023-12-20T07:23:57;98925.81;;;5.84;71.89
74893;BME280;63446;56.272;43.922;2023-12-20T07:26:23;98910.34;;;5.82;71.80
74893;BME280;63446;56.272;43.922;2023-12-20T07:28:49;98910.88;;;5.84;71.78
74893;BME280;63446;56.272;43.922;2023-12-20T07:31:16;98915.56;;;5.87;71.64
74893;BME280;63446;56.272;43.922;2023-12-20T07:33:42;98920.81;;;5.87;71.66
74893;BME280;63446;56.272;43.922;2023-12-20T07:36:08;98916.38;;;5.88;71.47
74893;BME280;63446;56.272;43.922;2023-12-20T07:38:34;98916.09;;;5.90;71.42
74893;BME280;63446;56.272;43.922;2023-12-20T07:41:00;98918.72;;;5.90;71.17
74893;BME280;63446;56.272;43.922;2023-12-20T07:43:26;98928.13;;;5.91;71.13
74893;BME280;63446;56.272;43.922;2023-12-20T07:45:52;98921.03;;;5.91;71.22
74893;BME280;63446;56.272;43.922;2023-12-20T07:48:17;98912.19;;;5.92;71.12
74893;BME280;63446;56.272;43.922;2023-12-20T07:50:43;98925.00;;;5.94;71.10
74893;BME280;63446;56.272;43.922;2023-12-20T07:53:09;98917.63;;;5.96;70.95
74893;BME280;63446;56.272;43.922;2023-12-20T07:55:35;98922.63;;;5.97;71.02
74893;BME280;63446;56.272;43.922;2023-12-20T07:58:01;98927.34;;;5.95;70.97
74893;BME280;63446;56.272;43.922;2023-12-20T08:00:27;98939.91;;;5.98;70.79
74893;BME280;63446;56.272;43.922;2023-12-20T08:02:53;98932.81;;;5.99;70.69
74893;BME280;63446;56.272;43.922;2023-12-20T08:05:19;98938.59;;;6.01;70.57
74893;BME280;63446;56.272;43.922;2023-12-20T08:07:45;98938.59;;;6.01;70.59
74893;BME280;63446;56.272;43.922;2023-12-20T08:10:11;98943.31;;;6.04;70.67
74893;BME280;63446;56.272;43.922;2023-12-20T08:12:37;98942.25;;;6.05;70.66
74893;BME280;63446;56.272;43.922;2023-12-20T08:15:06;98936.72;;;6.06;70.39
74893;BME280;63446;56.272;43.922;2023-12-20T08:17:32;98944.81;;;6.10;70.40
74893;BME280;63446;56.272;43.922;2023-12-20T08:19:57;98944.56;;;6.11;70.39
74893;BME280;63446;56.272;43.922;2023-12-20T08:22:23;98945.34;;;6.12;70.23
74893;BME280;63446;56.272;43.922;2023-12-20T08:24:49;98943.22;;;6.14;70.13
74893;BME280;63446;56.272;43.922;2023-12-20T08:27:16;98945.56;;;6.16;70.00
74893;BME280;63446;56.272;43.922;2023-12-20T08:29:43;98946.84;;;6.18;70.27
74893;BME280;63446;56.272;43.922;2023-12-20T08:32:10;98946.59;;;6.20;70.22
74893;BME280;63446;56.272;43.922;2023-12-20T08:34:36;98952.34;;;6.22;70.00
74893;BME280;63446;56.272;43.922;2023-12-20T08:37:02;98952.06;;;6.23;70.04
74893;BME280;63446;56.272;43.922;2023-12-20T08:39:28;98948.16;;;6.21;69.93
74893;BME280;63446;56.272;43.922;2023-12-20T08:41:55;98949.44;;;6.23;70.03
74893;BME280;63446;56.272;43.922;2023-12-20T08:44:21;98951.31;;;6.23;70.09
74893;BME280;63446;56.272;43.922;2023-12-20T08:46:48;98947.09;;;6.22;69.79
74893;BME280;63446;56.272;43.922;2023-12-20T08:49:14;98948.94;;;6.21;69.90
74893;BME280;63446;56.272;43.922;2023-12-20T08:51:40;98947.88;;;6.22;69.78
74893;BME280;63446;56.272;43.922;2023-12-20T08:54:06;98943.91;;;6.25;69.92
74893;BME280;63446;56.272;43.922;2023-12-20T08:56:34;98947.84;;;6.27;69.64
74893;BME280;63446;56.272;43.922;2023-12-20T08:58:59;98950.72;;;6.31;69.71
74893;BME280;63446;56.272;43.922;2023-12-20T09:01:25;98954.34;;;6.35;69.55
74893;BME280;63446;56.272;43.922;2023-12-20T09:03:51;98943.03;;;6.40;69.66
74893;BME280;63446;56.272;43.922;2023-12-20T09:06:17;98943.25;;;6.43;69.63
74893;BME280;63446;56.272;43.922;2023-12-20T09:08:43;98942.44;;;6.48;69.52
74893;BME280;63446;56.272;43.922;2023-12-20T09:11:09;98951.31;;;6.52;69.51
74893;BME280;63446;56.272;43.922;2023-12-20T09:13:35;98942.91;;;6.55;69.43
74893;BME280;63446;56.272;43.922;2023-12-20T09:16:02;98946.25;;;6.60;69.31
74893;BME280;63446;56.272;43.922;2023-12-20T09:18:28;98938.88;;;6.63;69.22
74893;BME280;63446;56.272;43.922;2023-12-20T09:20:54;98939.13;;;6.66;69.27
74893;BME280;63446;56.272;43.922;2023-12-20T09:23:20;98947.47;;;6.68;69.06
74893;BME280;63446;56.272;43.922;2023-12-20T09:25:45;98946.69;;;6.73;69.02
74893;BME280;63446;56.272;43.922;2023-12-20T09:28:12;98940.63;;;6.72;69.05
74893;BME280;63446;56.272;43.922;2023-12-20T09:30:38;98950.56;;;6.75;68.92
74893;BME280;63446;56.272;43.922;2023-12-20T09:33:05;98953.97;;;6.76;68.72
74893;BME280;63446;56.272;43.922;2023-12-20T09:35:33;98942.69;;;6.75;68.89
74893;BME280;63446;56.272;43.922;2023-12-20T09:37:59;98954.75;;;6.76;68.79
74893;BME280;63446;56.272;43.922;2023-12-20T09:40:26;98959.22;;;6.76;69.01
74893;BME280;63446;56.272;43.922;2023-12-20T09:43:03;98956.88;;;6.74;69.17
74893;BME280;63446;56.272;43.922;2023-12-20T09:45:30;98953.97;;;6.76;69.18
74893;BME280;63446;56.272;43.922;2023-12-20T09:47:57;98958.97;;;6.77;69.19
74893;BME280;63446;56.272;43.922;2023-12-20T09:50:23;98958.13;;;6.82;69.35
74893;BME280;63446;56.272;43.922;2023-12-20T09:52:52;98950.41;;;6.91;69.28
74893;BME280;63446;56.272;43.922;2023-12-20T09:55:20;98963.94;;;7.03;69.37
74893;BME280;63446;56.272;43.922;2023-12-20T09:57:47;98964.91;;;7.12;69.37
74893;BME280;63446;56.272;43.922;2023-12-20T10:00:14;98968.47;;;7.21;69.22
74893;BME280;63446;56.272;43.922;2023-12-20T10:02:56;98965.75;;;7.31;69.10
74893;BME280;63446;56.272;43.922;2023-12-20T10:05:26;98958.25;;;7.44;69.18
74893;BME280;63446;56.272;43.922;2023-12-20T10:07:53;98958.94;;;7.49;68.89
74893;BME280;63446;56.272;43.922;2023-12-20T10:10:18;98968.13;;;7.52;68.52
74893;BME280;63446;56.272;43.922;2023-12-20T10:13:04;98948.88;;;7.56;68.66
74893;BME280;63446;56.272;43.922;2023-12-20T10:15:33;98950.16;;;7.59;68.29
74893;BME280;63446;56.272;43.922;2023-12-20T10:18:03;98954.91;;;7.57;68.29
74893;BME280;63446;56.272;43.922;2023-12-20T10:20:31;98964.38;;;7.58;68.16
74893;BME280;63446;56.272;43.922;2023-12-20T10:23:00;98962.09;;;7.51;68.14
74893;BME280;63446;56.272;43.922;2023-12-20T10:25:27;98952.91;;;7.49;68.18
74893;BME280;63446;56.272;43.922;2023-12-20T10:28:15;98968.25;;;7.42;68.33
74893;BME280;63446;56.272;43.922;2023-12-20T10:30:45;98956.50;;;7.34;68.29
74893;BME280;63446;56.272;43.922;2023-12-20T10:33:11;98965.75;;;7.31;68.31
74893;BME280;63446;56.272;43.922;2023-12-20T10:35:38;98956.34;;;7.25;68.30
74893;BME280;63446;56.272;43.922;2023-12-20T10:38:06;98959.03;;;7.20;68.34
74893;BME280;63446;56.272;43.922;2023-12-20T10:40:35;98965.91;;;7.16;68.22
74893;BME280;63446;56.272;43.922;2023-12-20T10:43:05;98965.41;;;7.14;68.26
74893;BME280;63446;56.272;43.922;2023-12-20T10:45:31;98967.25;;;7.14;68.31
74893;BME280;63446;56.272;43.922;2023-12-20T10:47:57;98955.47;;;7.11;68.44
74893;BME280;63446;56.272;43.922;2023-12-20T10:50:26;98952.34;;;7.09;68.26
74893;BME280;63446;56.272;43.922;2023-12-20T10:52:52;98955.81;;;7.04;68.21
74893;BME280;63446;56.272;43.922;2023-12-20T10:55:22;98957.47;;;6.95;67.91
74893;BME280;63446;56.272;43.922;2023-12-20T10:57:50;98957.84;;;6.83;67.86
74893;BME280;63446;56.272;43.922;2023-12-20T11:00:18;98958.19;;;6.77;68.13
74893;BME280;63446;56.272;43.922;2023-12-20T11:02:44;98972.09;;;6.77;68.15
74893;BME280;63446;56.272;43.922;2023-12-20T11:05:23;98964.94;;;6.83;68.11
74893;BME280;63446;56.272;43.922;2023-12-20T11:07:55;98960.16;;;6.90;67.92
74893;BME280;63446;56.272;43.922;2023-12-20T11:13:31;98972.13;;;7.01;67.94
74893;BME280;63446;56.272;43.922;2023-12-20T11:15:58;98980.00;;;7.01;67.68
74893;BME280;63446;56.272;43.922;2023-12-20T11:18:31;98987.94;;;6.96;67.54
74893;BME280;63446;56.272;43.922;2023-12-20T11:21:05;98993.44;;;6.95;67.81
74893;BME280;63446;56.272;43.922;2023-12-20T11:23:32;98991.66;;;6.90;67.66
74893;BME280;63446;56.272;43.922;2023-12-20T11:26:02;98997.75;;;6.85;67.71
74893;BME280;63446;56.272;43.922;2023-12-20T11:28:28;99000.91;;;6.82;67.72
74893;BME280;63446;56.272;43.922;2023-12-20T11:31:00;99002.81;;;6.77;67.86
74893;BME280;63446;56.272;43.922;2023-12-20T11:33:29;98995.50;;;6.74;67.78
74893;BME280;63446;56.272;43.922;2023-12-20T11:35:56;98993.69;;;6.69;67.73
74893;BME280;63446;56.272;43.922;2023-12-20T11:38:23;99010.50;;;6.68;67.97
74893;BME280;63446;56.272;43.922;2023-12-20T11:40:49;99002.38;;;6.65;67.87
74893;BME280;63446;56.272;43.922;2023-12-20T11:43:37;99010.31;;;6.59;68.28
74893;BME280;63446;56.272;43.922;2023-12-20T11:48:32;99015.84;;;6.58;68.31
74893;BME280;63446;56.272;43.922;2023-12-20T11:50:58;99015.59;;;6.54;68.36
74893;BME280;63446;56.272;43.922;2023-12-20T11:53:24;99001.72;;;6.49;68.36
74893;BME280;63446;56.272;43.922;2023-12-20T11:55:50;99019.31;;;6.48;68.41
74893;BME280;63446;56.272;43.922;2023-12-20T11:58:17;99018.03;;;6.46;68.31
74893;BME280;63446;56.272;43.922;2023-12-20T12:00:43;99021.19;;;6.43;68.57
74893;BME280;63446;56.272;43.922;2023-12-20T12:03:09;99026.72;;;6.41;68.68
74893;BME280;63446;56.272;43.922;2023-12-20T12:05:35;99025.69;;;6.37;68.70
74893;BME280;63446;56.272;43.922;2023-12-20T12:08:02;99031.47;;;6.34;68.85
74893;BME280;63446;56.272;43.922;2023-12-20T12:10:31;99031.75;;;6.32;69.02
74893;BME280;63446;56.272;43.922;2023-12-20T12:12:57;99024.44;;;6.29;68.82
74893;BME280;63446;56.272;43.922;2023-12-20T12:15:22;99023.41;;;6.25;68.88
74893;BME280;63446;56.272;43.922;2023-12-20T12:17:55;99021.59;;;6.21;68.95
74893;BME280;63446;56.272;43.922;2023-12-20T12:20:23;99032.13;;;6.16;69.15
74893;BME280;63446;56.272;43.922;2023-12-20T12:25:25;99026.72;;;5.97;69.10
74893;BME280;63446;56.272;43.922;2023-12-20T12:27:51;99036.72;;;5.84;69.07
74893;BME280;63446;56.272;43.922;2023-12-20T12:30:17;99021.31;;;5.73;69.36
74893;BME280;63446;56.272;43.922;2023-12-20T12:32:44;99029.47;;;5.61;69.37
74893;BME280;63446;56.272;43.922;2023-12-20T12:35:11;99033.72;;;5.47;69.55
74893;BME280;63446;56.272;43.922;2023-12-20T12:37:38;99030.88;;;5.33;69.78
74893;BME280;63446;56.272;43.922;2023-12-20T12:40:15;99044.53;;;5.20;69.99
74893;BME280;63446;56.272;43.922;2023-12-20T12:42:43;99036.41;;;5.11;70.21
74893;BME280;63446;56.272;43.922;2023-12-20T12:45:09;99047.94;;;5.05;70.49
74893;BME280;63446;56.272;43.922;2023-12-20T12:47:37;99050.81;;;5.03;70.63
74893;BME280;63446;56.272;43.922;2023-12-20T12:50:04;99054.25;;;5.04;70.66
74893;BME280;63446;56.272;43.922;2023-12-20T12:52:31;99053.19;;;5.05;70.62
74893;BME280;63446;56.272;43.922;2023-12-20T12:54:57;99051.88;;;5.02;70.48
74893;BME280;63446;56.272;43.922;2023-12-20T12:57:23;99050.81;;;5.03;70.73
74893;BME280;63446;56.272;43.922;2023-12-20T12:59:50;99055.28;;;5.08;70.80
74893;BME280;63446;56.272;43.922;2023-12-20T13:02:16;99053.72;;;5.12;70.75
74893;BME280;63446;56.272;43.922;2023-12-20T13:04:42;99063.66;;;5.20;70.87